Time;durP1;ratioP1;P1;durP2;ratioP2;P2;SDS_P1;SDS_P2;PMS_P1;PMS_P2;Temp;Humidity;BMP_temperature;BMP_pressure;BME280_temperature;BME280_humidity;BME280_pressure;Samples;Min_cycle;Max_cycle;Signal;HPM_P1;HPM_P2
2022/08/17 00:01:37;;;;;;;7.90;6.67;;;16.60;99.90;17.30;96498.00;;;;5017776;28;20233;-71
2022/08/17 00:04:25;;;;;;;7.93;6.83;;;16.50;99.90;17.50;96505.00;;;;5025344;28;20212;-70
2022/08/17 00:07:15;;;;;;;8.90;7.67;;;16.50;99.90;17.60;96492.00;;;;5024587;28;20222;-70
2022/08/17 00:10:05;;;;;;;8.13;6.60;;;16.50;99.90;17.50;96487.00;;;;5018813;28;20280;-71
2022/08/17 00:12:54;;;;;;;10.23;7.50;;;16.50;99.90;17.80;96499.00;;;;5017188;28;20202;-72
2022/08/17 00:15:43;;;;;;;8.23;7.43;;;16.50;99.90;17.60;96502.00;;;;5017726;28;20230;-71
2022/08/17 00:18:33;;;;;;;11.93;7.13;;;16.60;99.90;17.20;96501.00;;;;5027735;28;20213;-70
2022/08/17 00:21:24;;;;;;;8.20;6.97;;;16.50;99.90;16.90;96487.00;;;;5018999;28;20209;-70
2022/08/17 00:24:15;;;;;;;7.23;5.93;;;16.40;99.90;16.90;96489.00;;;;5024015;28;20209;-70
2022/08/17 00:27:04;;;;;;;7.75;6.95;;;16.20;99.90;17.00;96497.00;;;;5025141;28;20217;-71
2022/08/17 00:29:53;;;;;;;7.83;7.10;;;16.20;99.90;17.00;96500.00;;;;5027220;28;20598;-71
2022/08/17 00:32:44;;;;;;;8.40;7.60;;;16.20;99.90;16.80;96499.00;;;;5018148;28;20206;-71
2022/08/17 00:35:33;;;;;;;9.73;8.73;;;16.10;99.90;16.90;96496.00;;;;5042565;23;20702;-83
2022/08/17 00:38:23;;;;;;;7.40;6.70;;;16.10;99.90;17.30;96495.00;;;;5044898;28;20220;-84
2022/08/17 00:41:17;;;;;;;8.80;6.63;;;16.10;99.90;17.50;96491.00;;;;5033881;28;20208;-83
2022/08/17 00:44:08;;;;;;;8.57;7.70;;;16.20;99.90;17.40;96493.00;;;;5048190;28;20208;-83
2022/08/17 00:46:57;;;;;;;11.27;7.07;;;16.30;99.90;17.70;96503.00;;;;5049340;28;20197;-84
2022/08/17 00:49:46;;;;;;;10.27;6.50;;;16.40;99.90;17.70;96496.00;;;;5017681;23;20238;-90
2022/08/17 00:52:44;;;;;;;13.97;6.87;;;16.50;99.90;17.30;96509.00;;;;5000656;28;20263;-89
2022/08/17 00:55:33;;;;;;;9.20;6.63;;;16.40;99.90;17.20;96505.00;;;;5000589;28;20213;-90
2022/08/17 00:58:24;;;;;;;8.73;7.83;;;;;17.10;96497.00;;;;4994720;28;20252;-90
2022/08/17 01:01:14;;;;;;;8.20;7.40;;;16.30;99.90;16.40;96494.00;;;;4994984;28;20206;-88
2022/08/17 01:04:04;;;;;;;7.87;7.03;;;16.10;99.90;16.40;96492.00;;;;4997699;28;20227;-89
2022/08/17 01:06:55;;;;;;;8.23;6.70;;;15.90;99.90;16.60;96500.00;;;;4999472;28;20573;-89
2022/08/17 01:10:06;;;;;;;8.77;7.40;;;15.80;99.90;16.30;96492.00;;;;4997284;28;20283;-89
2022/08/17 01:12:55;;;;;;;8.53;7.70;;;15.70;99.90;16.60;96493.00;;;;4986519;28;20206;-88
2022/08/17 01:15:57;;;;;;;8.57;7.77;;;15.70;99.90;16.70;96499.00;;;;4997865;28;20206;-89
2022/08/17 01:18:49;;;;;;;8.83;7.93;;;15.70;99.90;16.70;96500.00;;;;4991381;28;20221;-89
2022/08/17 01:21:47;;;;;;;8.67;7.80;;;15.70;99.90;16.40;96495.00;;;;5012626;28;20198;-87
2022/08/17 01:24:42;;;;;;;8.83;7.33;;;15.70;99.90;16.30;96497.00;;;;5049449;23;20237;-71
2022/08/17 01:27:31;;;;;;;8.33;7.53;;;15.70;99.90;16.50;96497.00;;;;5103327;28;20198;-72
2022/08/17 01:30:21;;;;;;;9.43;8.43;;;15.70;99.90;16.50;96498.00;;;;5109611;28;20199;-69
2022/08/17 01:33:10;;;;;;;9.83;8.43;;;15.60;99.90;16.40;96502.00;;;;5098912;28;20199;-69
2022/08/17 01:35:59;;;;;;;11.20;7.80;;;15.60;99.90;16.40;96507.00;;;;5108147;28;20222;-71
2022/08/17 01:38:48;;;;;;;8.23;7.47;;;15.60;99.90;16.10;96501.00;;;;5081371;28;20195;-69
2022/08/17 01:41:41;;;;;;;7.27;6.50;;;15.50;99.90;16.10;96501.00;;;;5097861;28;20534;-70
2022/08/17 01:44:30;;;;;;;10.23;8.60;;;15.50;99.90;16.30;96507.00;;;;5056997;28;20223;-73
2022/08/17 01:47:18;;;;;;;9.73;8.83;;;15.40;99.90;16.60;96512.00;;;;5107350;28;20205;-70
2022/08/17 01:50:10;;;;;;;8.53;7.43;;;15.50;99.90;16.50;96507.00;;;;5109718;28;20260;-68
2022/08/17 01:53:06;;;;;;;10.20;8.13;;;15.50;99.90;16.90;96508.00;;;;5109271;27;20730;-70
2022/08/17 01:56:00;;;;;;;10.10;7.83;;;15.60;99.90;16.70;96493.00;;;;5108990;28;20245;-68
2022/08/17 01:58:51;;;;;;;10.80;7.73;;;15.70;99.90;16.40;96496.00;;;;5068659;27;20199;-67
2022/08/17 02:01:40;;;;;;;9.07;7.90;;;15.60;99.90;16.20;96491.00;;;;5069724;28;20202;-71
2022/08/17 02:04:29;;;;;;;9.77;8.20;;;15.60;99.90;16.00;96488.00;;;;5103472;28;20623;-67
2022/08/17 02:07:18;;;;;;;8.87;7.97;;;15.50;99.90;15.70;96491.00;;;;5102631;28;20565;-68
2022/08/17 02:10:08;;;;;;;9.50;8.60;;;15.30;99.90;15.80;96500.00;;;;5110269;28;20234;-69
2022/08/17 02:12:57;;;;;;;9.73;7.30;;;15.20;99.90;16.00;96501.00;;;;5107709;28;20198;-69
2022/08/17 02:15:48;;;;;;;9.47;8.40;;;15.20;99.90;16.40;96485.00;;;;5070649;28;20226;-68
2022/08/17 02:18:37;;;;;;;8.63;7.83;;;15.20;99.90;16.30;96491.00;;;;5109892;28;20209;-67
2022/08/17 02:21:26;;;;;;;9.83;8.73;;;15.30;99.90;15.90;96496.00;;;;5107340;28;20210;-68
2022/08/17 02:24:20;;;;;;;9.90;9.00;;;15.20;99.90;16.10;96483.00;;;;5106117;28;20230;-67
2022/08/17 02:27:09;;;;;;;11.33;9.30;;;15.20;99.90;16.20;96489.00;;;;5098912;28;20199;-68
2022/08/17 02:29:58;;;;;;;9.63;8.63;;;15.20;99.90;16.20;96489.00;;;;5087220;28;20222;-69
2022/08/17 02:32:48;;;;;;;10.10;9.00;;;15.20;99.90;16.00;96483.00;;;;5097212;28;20210;-68
2022/08/17 02:35:38;;;;;;;10.13;8.60;;;15.20;99.90;16.20;96493.00;;;;5102272;28;20218;-69
2022/08/17 02:38:27;;;;;;;9.87;7.80;;;15.20;99.90;15.90;96489.00;;;;5107766;28;20210;-68
2022/08/17 02:41:16;;;;;;;10.60;8.80;;;15.20;99.90;16.10;96479.00;;;;5100558;28;20677;-69
2022/08/17 02:44:06;;;;;;;9.13;8.17;;;15.10;99.90;16.00;96469.00;;;;5104090;28;20200;-67
2022/08/17 02:46:54;;;;;;;9.00;8.10;;;15.20;99.90;16.20;96479.00;;;;5104373;28;20194;-69
2022/08/17 02:49:45;;;;;;;10.40;8.50;;;15.20;99.90;16.00;96477.00;;;;5106537;28;20223;-68
2022/08/17 02:52:38;;;;;;;11.43;8.33;;;15.10;99.90;16.10;96475.00;;;;5096934;28;20207;-69
2022/08/17 02:55:30;;;;;;;12.00;8.03;;;15.10;99.90;16.00;96477.00;;;;5103449;28;20224;-68
2022/08/17 02:58:19;;;;;;;10.37;8.70;;;15.10;99.90;15.80;96477.00;;;;5107904;28;20191;-68
2022/08/17 03:01:11;;;;;;;12.13;9.13;;;15.00;99.90;15.70;96477.00;;;;5103271;28;20207;-69
2022/08/17 03:04:00;;;;;;;10.47;9.23;;;15.00;99.90;15.60;96472.00;;;;5086103;27;20689;-68
2022/08/17 03:06:50;;;;;;;9.17;8.23;;;14.90;99.90;15.30;96474.00;;;;5071222;28;20218;-68
2022/08/17 03:09:39;;;;;;;10.00;9.00;;;14.90;99.90;15.40;96465.00;;;;5108199;28;20561;-71
2022/08/17 03:12:33;;;;;;;10.37;9.23;;;14.80;99.90;15.30;96468.00;;;;5103768;28;20210;-67
2022/08/17 03:15:25;;;;;;;10.97;7.90;;;14.70;99.90;15.20;96459.00;;;;5109004;28;20599;-66
2022/08/17 03:18:18;;;;;;;10.43;9.03;;;14.70;99.90;15.40;96472.00;;;;5107400;28;20198;-68
2022/08/17 03:21:08;;;;;;;9.93;8.87;;;14.70;99.90;15.40;96466.00;;;;5106328;28;20198;-71
2022/08/17 03:23:58;;;;;;;9.57;8.67;;;14.70;99.90;15.80;96474.00;;;;5099364;28;20203;-69
2022/08/17 03:26:47;;;;;;;11.43;9.90;;;14.70;99.90;15.90;96465.00;;;;5076639;28;20199;-68
2022/08/17 03:29:36;;;;;;;11.63;8.70;;;14.80;99.90;16.10;96469.00;;;;5097913;28;20263;-67
2022/08/17 03:32:25;;;;;;;11.80;9.40;;;14.90;99.90;15.90;96465.00;;;;5098904;28;20207;-68
2022/08/17 03:35:17;;;;;;;11.43;9.53;;;15.00;99.90;15.90;96469.00;;;;5105935;28;20226;-68
2022/08/17 03:38:07;;;;;;;10.17;9.07;;;15.00;99.90;15.60;96465.00;;;;5105055;28;20206;-68
2022/08/17 03:40:58;;;;;;;10.20;8.63;;;14.90;99.90;15.80;96464.00;;;;5104888;28;20222;-67
2022/08/17 03:43:47;;;;;;;9.73;8.73;;;14.90;99.90;15.60;96467.00;;;;5062178;28;20191;-69
2022/08/17 03:59:08;;;;;;;12.33;9.83;;;14.80;99.90;16.20;96447.00;;;;5105301;28;20187;-69
2022/08/17 04:02:02;;;;;;;10.13;8.80;;;15.00;99.90;15.90;96447.00;;;;5100818;28;20273;-71
2022/08/17 04:04:54;;;;;;;9.03;8.13;;;15.00;99.90;15.60;96458.00;;;;5052513;28;20226;-68
2022/08/17 04:07:43;;;;;;;11.03;8.63;;;14.90;99.90;15.10;96456.00;;;;5096981;28;20198;-66
2022/08/17 04:10:32;;;;;;;9.77;8.73;;;14.80;99.90;15.30;96455.00;;;;5109423;28;20598;-70
2022/08/17 04:13:22;;;;;;;11.47;7.97;;;14.70;99.90;15.20;96457.00;;;;5094152;28;20199;-74
2022/08/17 04:16:11;;;;;;;9.63;8.53;;;14.90;99.90;15.20;96457.00;;;;5107069;28;20222;-67
2022/08/17 04:19:00;;;;;;;10.43;9.43;;;14.60;99.90;15.30;96469.00;;;;5102669;28;20575;-71
2022/08/17 04:21:49;;;;;;;9.43;8.50;;;14.60;99.90;15.60;96469.00;;;;5102822;28;20198;-68
2022/08/17 04:24:38;;;;;;;10.47;9.17;;;14.60;99.90;15.80;96464.00;;;;5102751;28;20238;-69
2022/08/17 04:27:27;;;;;;;11.23;10.03;;;14.70;99.90;16.00;96472.00;;;;5105362;28;20975;-69
2022/08/17 04:30:17;;;;;;;10.87;9.70;;;14.80;99.90;15.90;96475.00;;;;5095816;28;20226;-68
2022/08/17 04:33:09;;;;;;;11.27;9.10;;;14.90;99.90;16.00;96469.00;;;;5098542;28;20214;-68
2022/08/17 04:36:02;;;;;;;11.60;9.70;;;15.00;99.90;16.10;96460.00;;;;5097393;28;20682;-68
2022/08/17 04:38:51;;;;;;;10.77;9.63;;;15.10;99.90;15.60;96475.00;;;;5103203;28;20206;-67
2022/08/17 04:44:45;;;;;;;10.57;9.07;;;14.90;99.90;15.70;96485.00;;;;5106308;28;20304;-70
2022/08/17 04:47:36;;;;;;;10.27;9.17;;;14.90;99.90;15.70;96477.00;;;;5105369;28;20214;-68
2022/08/17 04:50:25;;;;;;;9.40;8.37;;;14.90;99.90;15.50;96485.00;;;;5100690;28;20230;-69
2022/08/17 04:53:14;;;;;;;11.03;9.93;;;14.80;99.90;15.50;96475.00;;;;5103438;28;20205;-69
2022/08/17 04:56:04;;;;;;;11.07;8.97;;;14.80;99.90;15.60;96475.00;;;;5105599;28;20230;-68
2022/08/17 04:58:56;;;;;;;10.07;8.87;;;14.80;99.90;15.80;96483.00;;;;5103775;28;20199;-69
2022/08/17 05:01:48;;;;;;;11.70;10.47;;;14.90;99.90;16.20;96480.00;;;;5099428;28;20210;-68
2022/08/17 05:04:40;;;;;;;10.70;9.70;;;15.00;99.90;16.30;96491.00;;;;5104086;28;20218;-68
2022/08/17 05:07:29;;;;;;;10.93;9.63;;;15.20;99.90;16.30;96486.00;;;;5103870;28;20201;-68
2022/08/17 05:10:20;;;;;;;10.63;8.67;;;15.30;99.90;16.30;96500.00;;;;5103909;28;20229;-68
2022/08/17 05:13:11;;;;;;;9.57;8.70;;;15.40;99.90;16.60;96507.00;;;;5105907;28;20202;-68
2022/08/17 05:16:03;;;;;;;13.43;9.60;;;15.50;99.90;16.70;96489.00;;;;5105472;28;20222;-69
2022/08/17 05:18:53;;;;;;;9.30;7.90;;;15.60;99.90;16.60;96506.00;;;;5099857;28;20665;-69
2022/08/17 05:21:43;;;;;;;9.77;8.73;;;15.70;99.90;16.80;96496.00;;;;5092341;28;20207;-68
2022/08/17 05:24:32;;;;;;;11.27;8.60;;;15.80;99.90;16.90;96489.00;;;;5106942;28;20248;-68
2022/08/17 05:27:21;;;;;;;9.13;8.33;;;15.90;99.90;16.60;96495.00;;;;5098301;28;20684;-71
2022/08/17 05:30:12;;;;;;;10.00;7.53;;;15.90;99.90;16.70;96489.00;;;;5103186;28;20267;-69
2022/08/17 05:33:03;;;;;;;10.27;8.20;;;15.90;99.90;16.90;96492.00;;;;5099944;28;20206;-68
2022/08/17 05:35:55;;;;;;;9.87;8.87;;;16.00;99.90;17.30;96484.00;;;;5100190;28;20222;-70
2022/08/17 05:38:45;;;;;;;11.70;8.70;;;16.20;99.90;17.60;96488.00;;;;5102192;28;20198;-73
2022/08/17 05:41:34;;;;;;;9.07;8.27;;;16.30;99.90;17.80;96493.00;;;;5094778;28;20195;-69
2022/08/17 05:44:23;;;;;;;10.57;9.50;;;16.50;99.90;18.20;96500.00;;;;5107660;28;20215;-68
2022/08/17 05:47:12;;;;;;;10.20;8.83;;;16.70;99.90;18.40;96490.00;;;;5105592;28;20207;-69
2022/08/17 05:50:02;;;;;;;10.03;9.03;;;16.90;99.90;18.50;96495.00;;;;5105282;28;20222;-70
2022/08/17 05:53:04;;;;;;;9.67;8.77;;;17.10;99.90;18.80;96488.00;;;;5107079;28;20206;-68
2022/08/17 05:56:11;;;;;;;13.00;8.73;;;17.30;99.90;19.00;96490.00;;;;5108316;28;20233;-70
2022/08/17 05:59:16;;;;;;;12.50;9.00;;;17.50;99.90;19.00;96490.00;;;;5104585;28;20206;-70
2022/08/17 06:02:16;;;;;;;11.93;8.97;;;17.70;99.90;19.10;96484.00;;;;5096949;28;20209;-71
2022/08/17 06:05:19;;;;;;;11.50;8.60;;;17.80;99.90;19.20;96491.00;;;;5106102;28;20218;-69
2022/08/17 06:08:18;;;;;;;9.77;8.77;;;17.90;99.90;19.60;96478.00;;;;5107262;28;20665;-70
2022/08/17 06:11:20;;;;;;;10.37;9.27;;;18.10;99.90;19.70;96480.00;;;;5099881;28;20610;-69
2022/08/17 06:14:35;;;;;;;10.27;8.43;;;18.20;99.90;19.90;96473.00;;;;5106017;28;20187;-69
2022/08/17 06:17:26;;;;;;;13.47;8.67;;;18.40;99.90;20.30;96474.00;;;;5100414;28;20216;-69
2022/08/17 06:20:16;;;;;;;10.90;8.70;;;18.60;99.90;20.60;96474.00;;;;5097107;28;20194;-70
2022/08/17 06:23:10;;;;;;;11.33;9.30;;;18.80;99.90;20.60;96467.00;;;;5103875;28;20537;-68
2022/08/17 06:26:06;;;;;;;14.83;9.73;;;19.10;99.90;21.00;96466.00;;;;5104211;28;20230;-70
2022/08/17 06:29:02;;;;;;;12.27;8.67;;;19.30;99.90;21.40;96464.00;;;;5107632;28;20202;-69
2022/08/17 06:31:51;;;;;;;11.97;8.83;;;19.60;99.90;21.20;96462.00;;;;5098768;28;20219;-69
2022/08/17 06:34:42;;;;;;;11.23;9.43;;;19.70;99.90;21.50;96469.00;;;;5108414;22;20424;-86
2022/08/17 06:38:04;;;;;;;10.63;8.07;;;19.90;99.90;21.60;96466.00;;;;5075780;28;20216;-86
2022/08/17 06:41:05;;;;;;;13.30;8.70;;;20.10;99.90;21.60;96467.00;;;;5052025;28;20208;-85
2022/08/17 06:44:13;;;;;;;14.40;7.80;;;20.30;99.90;21.50;96463.00;;;;5053146;28;20207;-83
2022/08/17 06:47:19;;;;;;;10.60;7.93;;;20.40;99.90;22.00;96470.00;;;;5070658;28;20235;-86
2022/08/17 06:50:04;;;;;;;9.77;7.87;;;20.50;99.90;22.10;96472.00;;;;5118072;22;20291;-75
2022/08/17 06:52:58;;;;;;;10.60;7.83;;;20.60;99.90;22.30;96464.00;;;;5092737;28;20195;-76
2022/08/17 06:55:55;;;;;;;9.67;7.37;;;20.80;99.90;22.70;96465.00;;;;5071044;28;20226;-76
2022/08/17 06:58:48;;;;;;;8.30;7.43;;;21.00;99.90;22.90;96469.00;;;;5062696;28;20195;-75
2022/08/17 07:01:41;;;;;;;11.30;7.67;;;21.20;99.90;23.00;96453.00;;;;5099858;27;20233;-76
2022/08/17 07:04:33;;;;;;;14.20;8.50;;;21.30;99.90;23.30;96459.00;;;;5103620;28;20226;-75
2022/08/17 07:10:40;;;;;;;9.73;8.07;;;21.70;99.90;23.30;96465.00;;;;5067132;28;20205;-75
2022/08/17 07:13:43;;;;;;;17.30;9.83;;;21.80;99.90;23.30;96460.00;;;;5104549;28;20195;-74
2022/08/17 07:16:41;;;;;;;9.67;7.47;;;22.00;99.90;23.80;96456.00;;;;5099545;28;20202;-75
2022/08/17 07:19:33;;;;;;;10.10;7.90;;;22.10;99.90;23.50;96445.00;;;;5109714;28;20684;-74
2022/08/17 07:22:31;;;;;;;11.47;7.40;;;22.20;99.90;23.80;96452.00;;;;5099691;28;20206;-74
2022/08/17 07:25:20;;;;;;;8.97;7.93;;;22.30;99.90;24.40;96454.00;;;;5099990;28;20227;-73
2022/08/17 07:28:09;;;;;;;9.03;7.57;;;22.50;99.90;24.30;96454.00;;;;5103967;28;20889;-75
2022/08/17 07:30:58;;;;;;;9.47;7.70;;;22.60;99.90;24.20;96453.00;;;;5107713;28;20210;-75
2022/08/17 07:34:06;;;;;;;8.60;7.70;;;22.70;99.90;24.80;96442.00;;;;5095772;28;20285;-75
2022/08/17 07:37:04;;;;;;;7.83;7.03;;;22.90;99.90;25.00;96446.00;;;;5090187;28;20197;-75
2022/08/17 07:39:55;;;;;;;10.57;6.73;;;23.10;99.90;25.40;96445.00;;;;5105344;28;20198;-75
2022/08/17 07:43:00;;;;;;;7.77;7.00;;;23.40;99.90;25.50;96438.00;;;;5095643;28;20214;-75
2022/08/17 07:49:36;;;;;;;7.80;6.40;;;23.80;99.90;26.20;96441.00;;;;5077439;28;20711;-74
2022/08/17 07:52:31;;;;;;;12.97;6.20;;;24.10;99.90;26.20;96442.00;;;;5093632;28;20226;-74
2022/08/17 07:55:31;;;;;;;8.37;7.37;;;24.30;99.90;26.60;96447.00;;;;5103758;28;20219;-75
2022/08/17 07:58:23;;;;;;;9.80;6.87;;;24.40;99.90;26.70;96452.00;;;;5097732;28;20203;-74
2022/08/17 08:01:17;;;;;;;10.43;6.67;;;24.70;99.90;26.80;96446.00;;;;5099039;28;20207;-74
2022/08/17 08:04:33;;;;;;;6.20;5.60;;;24.80;99.90;27.10;96439.00;;;;5107437;28;20206;-74
2022/08/17 08:07:53;;;;;;;11.00;7.30;;;25.00;99.90;27.20;96444.00;;;;5075702;28;20205;-74
2022/08/17 08:10:43;;;;;;;8.20;7.20;;;25.20;99.90;27.40;96456.00;;;;5108306;28;20202;-75
2022/08/17 08:13:32;;;;;;;11.97;6.43;;;25.40;99.90;27.70;96461.00;;;;5070125;28;20996;-75
2022/08/17 08:16:28;;;;;;;7.00;6.40;;;25.50;99.90;27.80;96457.00;;;;5108559;28;20218;-74
2022/08/17 08:19:17;;;;;;;6.03;5.43;;;25.70;99.90;27.80;96456.00;;;;5101120;28;20206;-74
2022/08/17 08:22:20;;;;;;;7.30;6.40;;;25.80;99.90;28.20;96458.00;;;;5105407;27;20552;-75
2022/08/17 08:25:25;;;;;;;7.30;6.43;;;26.00;99.90;28.30;96458.00;;;;5102534;28;20222;-74
2022/08/17 08:28:27;;;;;;;6.80;6.20;;;26.20;99.90;28.60;96462.00;;;;5101653;28;20206;-74
2022/08/17 08:31:24;;;;;;;6.63;5.43;;;26.40;99.90;28.80;96457.00;;;;5100586;28;20215;-74
2022/08/17 08:34:25;;;;;;;7.23;6.33;;;26.60;99.90;29.00;96463.00;;;;5098811;28;20685;-74
2022/08/17 08:37:29;;;;;;;6.40;5.80;;;26.80;99.90;29.20;96459.00;;;;5103449;28;20223;-74
2022/08/17 08:40:45;;;;;;;8.20;6.37;;;27.00;99.90;29.40;96460.00;;;;5107747;28;20329;-74
2022/08/17 08:43:45;;;;;;;6.30;5.80;;;27.10;99.90;29.50;96460.00;;;;5104173;28;20207;-74
2022/08/17 08:46:48;;;;;;;6.37;5.77;;;27.30;99.90;29.70;96464.00;;;;5091676;28;20207;-75
2022/08/17 08:50:14;;;;;;;9.93;6.43;;;27.50;99.90;30.00;96461.00;;;;5084530;28;20217;-74
2022/08/17 08:53:33;;;;;;;6.77;5.53;;;27.70;99.90;30.10;96465.00;;;;5097613;28;20239;-74
2022/08/17 08:56:32;;;;;;;5.93;5.33;;;27.90;99.70;30.40;96465.00;;;;5106753;28;20228;-74
2022/08/17 08:59:28;;;;;;;8.43;5.97;;;28.00;99.30;30.50;96464.00;;;;5101940;28;20196;-74
2022/08/17 09:02:34;;;;;;;5.77;5.27;;;28.20;98.40;30.70;96462.00;;;;5100696;28;20225;-76
2022/08/17 09:05:38;;;;;;;6.90;5.20;;;28.40;97.80;30.90;96460.00;;;;5099670;28;20593;-75
2022/08/17 09:08:42;;;;;;;6.27;5.67;;;28.60;96.60;31.10;96454.00;;;;5102378;28;20688;-75
2022/08/17 09:11:41;;;;;;;6.77;5.47;;;28.70;96.40;31.30;96463.00;;;;5097585;28;20258;-74
2022/08/17 09:14:37;;;;;;;5.33;4.83;;;28.90;95.20;31.20;96455.00;;;;5100448;28;20221;-73
2022/08/17 09:17:37;;;;;;;5.30;4.40;;;29.10;93.20;31.60;96455.00;;;;5087056;28;20210;-71
2022/08/17 09:20:31;;;;;;;7.67;5.07;;;29.20;93.10;31.20;96461.00;;;;5108431;28;20210;-71
2022/08/17 09:23:37;;;;;;;6.40;5.43;;;29.40;92.00;30.70;96459.00;;;;5101586;28;20206;-72
2022/08/17 09:26:33;;;;;;;6.27;5.30;;;29.30;90.20;31.30;96460.00;;;;5105582;28;20225;-72
2022/08/17 09:29:26;;;;;;;5.93;5.33;;;29.30;90.30;31.60;96456.00;;;;5097816;28;20197;-73
2022/08/17 09:32:21;;;;;;;5.97;5.00;;;29.40;90.30;32.10;96457.00;;;;5107503;28;20222;-74
2022/08/17 09:35:18;;;;;;;8.38;5.85;;;29.60;90.30;32.40;96455.00;;;;5101630;28;20739;-74
2022/08/17 09:38:21;;;;;;;7.72;5.32;;;29.80;90.10;32.50;96440.00;;;;5102177;28;20202;-73
2022/08/17 09:41:20;;;;;;;6.15;4.78;;;30.10;90.30;32.60;96434.00;;;;5101466;28;20205;-73
2022/08/17 09:44:20;;;;;;;6.20;4.57;;;30.30;88.30;31.30;96435.00;;;;5104848;28;20554;-74
2022/08/17 09:47:17;;;;;;;6.10;4.32;;;30.20;80.60;32.40;96430.00;;;;5108084;28;20221;-73
2022/08/17 09:50:15;;;;;;;6.95;5.15;;;30.30;80.50;32.90;96430.00;;;;5103740;28;20212;-73
2022/08/17 09:53:04;;;;;;;6.63;4.97;;;30.50;81.10;32.40;96440.00;;;;5102944;28;20233;-73
2022/08/17 09:56:09;;;;;;;5.35;4.85;;;30.70;77.50;32.60;96432.00;;;;5101501;28;20603;-74
2022/08/17 09:59:23;;;;;;;6.82;5.53;;;30.60;77.70;33.40;96428.00;;;;5098609;28;20222;-74
2022/08/17 10:02:42;;;;;;;6.65;4.93;;;30.90;77.80;33.40;96435.00;;;;5098003;28;20194;-74
2022/08/17 10:05:40;;;;;;;5.90;5.40;;;31.10;77.50;33.10;96424.00;;;;5101507;28;20234;-74
2022/08/17 10:08:39;;;;;;;9.38;4.50;;;31.30;77.10;33.80;96426.00;;;;5098302;28;20197;-73
2022/08/17 10:14:53;;;;;;;10.07;5.20;;;31.60;73.80;34.20;96415.00;;;;5102359;28;20221;-74
2022/08/17 10:17:57;;;;;;;5.78;4.97;;;31.80;74.10;33.80;96406.00;;;;5097679;28;20220;-74
2022/08/17 10:26:11;;;;;;;7.45;4.63;;;31.90;70.90;33.50;96398.00;;;;5099453;28;20245;-73
2022/08/17 10:27:23;;;;;;;5.07;4.40;;;32.10;70.40;34.90;96391.00;;;;5106983;28;20579;-73
2022/08/17 10:30:19;;;;;;;6.55;5.15;;;32.30;68.90;33.70;96391.00;;;;5103555;28;20201;-74
2022/08/17 10:33:16;;;;;;;5.78;4.85;;;32.40;69.40;34.00;96389.00;;;;5109044;28;20594;-73
2022/08/17 10:36:12;;;;;;;6.32;5.70;;;32.40;67.60;34.70;96390.00;;;;5108628;28;20880;-73
2022/08/17 10:39:18;;;;;;;8.48;4.93;;;32.50;68.50;34.60;96393.00;;;;5111074;28;20208;-73
2022/08/17 10:42:22;;;;;;;4.65;4.25;;;32.70;67.80;32.70;96386.00;;;;5101110;27;20196;-73
2022/08/17 10:45:22;;;;;;;4.38;4.07;;;32.40;64.40;34.70;96389.00;;;;5099066;28;20688;-73
2022/08/17 10:48:31;;;;;;;4.47;4.15;;;32.40;65.90;35.60;96389.00;;;;5115235;27;20223;-74
2022/08/17 10:51:37;;;;;;;6.53;4.65;;;32.70;65.70;34.70;96396.00;;;;5110018;28;20246;-70
2022/08/17 10:55:13;;;;;;;8.43;4.40;;;32.90;63.30;34.00;96382.00;;;;5109415;28;20248;-72
2022/08/17 10:58:20;;;;;;;6.45;4.18;;;32.70;62.60;35.00;96374.00;;;;5043895;28;20212;-72
2022/08/17 11:01:11;;;;;;;4.40;4.00;;;32.70;63.40;35.10;96381.00;;;;5109365;28;20200;-71
2022/08/17 11:04:08;;;;;;;5.03;4.18;;;33.00;61.00;35.80;96378.00;;;;5099804;28;20247;-72
2022/08/17 11:07:10;;;;;;;4.20;3.80;;;33.20;62.80;35.80;96368.00;;;;5106123;28;20202;-72
2022/08/17 11:10:14;;;;;;;;;;;33.50;59.60;34.90;96360.00;;;;5111420;28;20066;-72
2022/08/17 11:13:13;;;;;;;4.75;4.30;;;33.50;58.30;35.80;96362.00;;;;5103725;28;20417;-73
2022/08/17 11:16:33;;;;;;;4.78;4.38;;;33.60;58.50;36.10;96364.00;;;;5102057;27;20260;-72
2022/08/17 11:19:52;;;;;;;4.97;3.72;;;33.80;59.10;35.80;96363.00;;;;5100783;28;20198;-72
2022/08/17 11:23:31;;;;;;;4.35;3.97;;;33.80;58.00;37.20;96355.00;;;;5103795;27;20203;-72
2022/08/17 11:26:26;;;;;;;6.53;3.58;;;34.20;58.30;37.10;96347.00;;;;5020793;28;20228;-72
2022/08/17 11:29:23;;;;;;;5.80;3.85;;;34.60;58.40;36.70;96353.00;;;;5109676;28;20191;-72
2022/08/17 11:32:37;;;;;;;4.10;3.80;;;34.80;57.70;37.20;96336.00;;;;5100463;28;20222;-72
2022/08/17 11:35:38;;;;;;;4.30;3.90;;;34.80;57.00;38.00;96340.00;;;;5106717;27;20218;-72
2022/08/17 11:38:40;;;;;;;5.65;3.97;;;35.10;56.50;37.50;96341.00;;;;5114581;27;20205;-73
2022/08/17 11:41:40;;;;;;;4.40;3.65;;;35.30;56.20;37.90;96341.00;;;;5106618;28;20198;-73
2022/08/17 11:44:44;;;;;;;3.78;3.47;;;35.50;55.00;38.40;96347.00;;;;5099560;28;20610;-73
2022/08/17 11:51:33;;;;;;;4.80;4.38;;;35.50;53.80;37.40;96332.00;;;;5104676;28;20222;-73
2022/08/17 11:54:44;;;;;;;4.25;3.95;;;35.70;53.00;39.30;96330.00;;;;5106417;28;20226;-72
2022/08/17 11:57:59;;;;;;;3.67;3.38;;;36.00;55.10;39.80;96332.00;;;;5101581;28;20215;-72
2022/08/17 12:00:59;;;;;;;4.25;3.85;;;36.50;55.10;39.60;96330.00;;;;5102793;28;20195;-72
2022/08/17 12:03:55;;;;;;;4.70;4.30;;;36.80;53.90;40.00;96334.00;;;;5100817;28;20191;-72
2022/08/17 12:06:50;;;;;;;3.80;3.47;;;37.00;53.80;40.20;96332.00;;;;5106146;28;20268;-72
2022/08/17 12:09:43;;;;;;;4.00;3.63;;;37.30;53.30;39.90;96329.00;;;;5105476;28;20206;-72
2022/08/17 12:12:34;;;;;;;3.63;3.35;;;37.50;51.90;40.70;96320.00;;;;5098421;28;21090;-72
2022/08/17 12:15:31;;;;;;;4.13;3.72;;;37.60;53.30;40.80;96317.00;;;;5098914;28;20325;-72
2022/08/17 12:18:23;;;;;;;4.25;3.83;;;38.00;53.00;39.70;96315.00;;;;5108235;27;20205;-72
2022/08/17 12:21:41;;;;;;;5.13;4.57;;;37.80;51.40;39.60;96317.00;;;;5103260;28;20202;-72
2022/08/17 12:24:47;;;;;;;3.83;3.53;;;37.90;50.80;38.50;96327.00;;;;5101761;28;20211;-73
2022/08/17 12:27:37;;;;;;;4.50;4.20;;;37.60;51.30;39.30;96327.00;;;;5098480;28;20206;-72
2022/08/17 12:30:26;;;;;;;6.03;4.60;;;37.50;51.90;39.20;96323.00;;;;5102165;28;20198;-72
2022/08/17 12:33:15;;;;;;;4.35;3.95;;;37.60;50.20;39.30;96317.00;;;;5108050;28;20675;-72
2022/08/17 12:36:07;;;;;;;4.13;3.80;;;37.50;51.10;40.10;96324.00;;;;5102673;28;20234;-72
2022/08/17 12:39:04;;;;;;;3.92;3.63;;;37.50;50.70;41.10;96311.00;;;;5099138;28;20226;-72
2022/08/17 12:41:56;;;;;;;3.95;3.55;;;37.80;51.70;41.90;96319.00;;;;5079252;28;20197;-72
2022/08/17 12:44:49;;;;;;;3.40;3.10;;;38.20;51.80;41.80;96316.00;;;;5101513;28;20219;-72
2022/08/17 12:47:38;;;;;;;4.00;3.70;;;38.60;49.90;41.50;96314.00;;;;5098733;28;20225;-72
2022/08/17 12:50:27;;;;;;;4.90;3.78;;;38.80;49.60;41.80;96319.00;;;;5105869;28;20206;-72
2022/08/17 12:53:23;;;;;;;3.17;2.95;;;39.00;49.80;39.10;96313.00;;;;5106598;28;20263;-71
2022/08/17 12:56:13;;;;;;;3.22;3.03;;;39.00;46.20;39.30;96317.00;;;;5109104;28;20218;-72
2022/08/17 12:59:05;;;;;;;3.47;3.25;;;38.10;46.80;38.60;96324.00;;;;5106001;28;20198;-72
2022/08/17 13:01:55;;;;;;;3.70;2.97;;;37.90;46.80;38.70;96331.00;;;;5100054;28;20210;-72
2022/08/17 13:04:43;;;;;;;3.13;2.92;;;37.50;47.30;39.00;96310.00;;;;5096586;28;20311;-72
2022/08/17 13:07:41;;;;;;;3.92;3.38;;;37.30;46.60;40.80;96327.00;;;;5095052;28;20812;-72
2022/08/17 13:10:34;;;;;;;5.68;3.45;;;37.60;49.10;41.60;96312.00;;;;5092610;28;20948;-72
2022/08/17 13:13:27;;;;;;;4.05;3.00;;;38.00;49.40;39.60;96303.00;;;;5097378;28;20202;-69
2022/08/17 13:16:20;;;;;;;3.63;2.50;;;38.30;46.50;38.60;96307.00;;;;5097039;28;20211;-71
2022/08/17 13:19:14;;;;;;;3.22;2.92;;;37.80;45.80;40.80;96319.00;;;;5109121;28;20202;-71
2022/08/17 13:22:03;;;;;;;3.90;3.15;;;37.90;47.40;41.40;96302.00;;;;5105381;28;20589;-71
2022/08/17 13:24:55;;;;;;;3.00;2.75;;;38.20;48.00;41.90;96300.00;;;;5105609;28;20226;-71
2022/08/17 13:27:45;;;;;;;3.92;2.92;;;38.80;47.20;42.60;96300.00;;;;5101251;28;20195;-72
2022/08/17 13:30:35;;;;;;;3.35;3.08;;;39.10;48.20;43.60;96293.00;;;;5099554;28;20633;-73